createdAt,value
2022-11-27T00:01:13.670Z,101740.00
2022-11-27T00:03:41.396Z,101750.50
2022-11-27T00:06:12.024Z,101742.59
2022-11-27T00:08:38.817Z,101741.66
2022-11-27T00:11:07.976Z,101740.75
2022-11-27T00:13:35.410Z,101745.22
2022-11-27T00:16:03.020Z,101732.72
2022-11-27T00:18:30.653Z,101746.91
2022-11-27T00:21:02.809Z,101727.41
2022-11-27T00:23:29.571Z,101745.22
2022-11-27T00:25:56.423Z,101740.84
2022-11-27T00:28:23.325Z,101740.72
2022-11-27T00:30:50.176Z,101739.88
2022-11-27T00:33:17.085Z,101741.66
2022-11-27T00:35:44.042Z,101745.13
2022-11-27T00:38:10.916Z,101742.47
2022-11-27T00:40:37.691Z,101744.19
2022-11-27T00:43:04.511Z,101744.12
2022-11-27T00:45:31.216Z,101736.22
2022-11-27T00:47:58.117Z,101746.50
2022-11-27T00:50:24.993Z,101742.16
2022-11-27T00:52:51.733Z,101751.66
2022-11-27T00:55:18.535Z,101749.09
2022-11-27T00:57:45.298Z,101751.66
2022-11-27T01:00:12.766Z,101746.41
2022-11-27T01:02:39.563Z,101741.16
2022-11-27T01:05:07.063Z,101746.38
2022-11-27T01:07:34.052Z,101750.84
2022-11-27T01:10:06.123Z,101759.53
2022-11-27T01:12:33.089Z,101753.50
2022-11-27T01:14:59.887Z,101748.34
2022-11-27T01:17:26.697Z,101753.53
2022-11-27T01:19:53.445Z,101742.09
2022-11-27T01:22:20.258Z,101749.00
2022-11-27T01:24:46.957Z,101748.16
2022-11-27T01:27:14.976Z,101750.91
2022-11-27T01:29:42.001Z,101752.66
2022-11-27T01:32:08.781Z,101757.91
2022-11-27T01:34:35.595Z,101755.25
2022-11-27T01:37:02.377Z,101756.13
2022-11-27T01:39:29.153Z,101755.25
2022-11-27T01:41:56.417Z,101757.09
2022-11-27T01:44:26.102Z,101763.22
2022-11-27T01:47:00.554Z,101765.84
2022-11-27T01:50:18.168Z,101762.37
2022-11-27T01:52:50.565Z,101757.25
2022-11-27T01:55:34.405Z,101760.81
2022-11-27T01:58:13.593Z,101760.03
2022-11-27T02:00:40.715Z,101753.19
2022-11-27T02:03:07.540Z,101753.00
2022-11-27T02:05:34.501Z,101763.69
2022-11-27T02:08:06.641Z,101772.44
2022-11-27T02:10:46.340Z,101768.09
2022-11-27T02:13:20.727Z,101771.66
2022-11-27T02:16:05.850Z,101774.28
2022-11-27T02:18:38.682Z,101770.78
2022-11-27T02:21:05.448Z,101777.06
2022-11-27T02:23:44.292Z,101769.31
2022-11-27T02:26:37.085Z,101773.78
2022-11-27T02:29:07.846Z,101768.53
2022-11-27T02:31:55.408Z,101758.87
2022-11-27T02:34:33.738Z,101758.16
2022-11-27T02:37:09.112Z,101757.34
2022-11-27T02:39:50.060Z,101766.97
2022-11-27T02:42:21.161Z,101764.25
2022-11-27T02:44:57.121Z,101774.09
2022-11-27T02:47:24.338Z,101774.03
2022-11-27T02:49:57.083Z,101771.47
2022-11-27T02:52:27.661Z,101775.06
2022-11-27T02:55:00.633Z,101775.19
2022-11-27T02:57:28.801Z,101782.97
2022-11-27T02:59:58.053Z,101782.09
2022-11-27T03:02:36.077Z,101783.88
2022-11-27T03:05:06.803Z,101781.22
2022-11-27T03:07:43.993Z,101781.22
2022-11-27T03:10:20.812Z,101781.31
2022-11-27T03:12:48.839Z,101783.22
2022-11-27T03:15:16.120Z,101791.97
2022-11-27T03:17:51.921Z,101789.44
2022-11-27T03:20:32.207Z,101792.13
2022-11-27T03:22:59.049Z,101796.47
2022-11-27T03:25:25.807Z,101790.44
2022-11-27T03:28:04.040Z,101790.41
2022-11-27T03:30:30.982Z,101791.16
2022-11-27T03:32:57.941Z,101789.56
2022-11-27T03:35:26.632Z,101784.28
2022-11-27T03:37:54.049Z,101780.78
2022-11-27T03:40:29.539Z,101786.06
2022-11-27T03:43:09.817Z,101789.53
2022-11-27T03:46:06.438Z,101796.53
2022-11-27T03:48:36.670Z,101795.69
2022-11-27T03:51:17.851Z,101793.13
2022-11-27T03:53:58.817Z,101793.81
2022-11-27T03:56:51.812Z,101801.88
2022-11-27T03:59:27.430Z,101798.44
2022-11-27T04:01:54.451Z,101796.72
2022-11-27T04:04:21.470Z,101792.38
2022-11-27T04:06:48.253Z,101788.88
2022-11-27T04:09:15.058Z,101786.37
2022-11-27T04:11:41.891Z,101785.53
2022-11-27T04:14:08.642Z,101761.53
2022-11-27T04:16:35.536Z,101791.75
2022-11-27T04:19:02.554Z,101790.94
2022-11-27T04:21:29.798Z,101792.69
2022-11-27T04:23:56.556Z,101792.69
2022-11-27T04:26:24.702Z,101792.63
2022-11-27T04:28:51.495Z,101791.72
2022-11-27T04:31:18.807Z,101790.00
2022-11-27T04:33:45.586Z,101788.25
2022-11-27T04:36:12.329Z,101787.44
2022-11-27T04:38:39.390Z,101789.13
2022-11-27T04:41:06.267Z,101786.56
2022-11-27T04:43:33.063Z,101769.72
2022-11-27T04:45:59.860Z,101783.97
2022-11-27T04:48:27.225Z,101778.72
2022-11-27T04:50:55.331Z,101781.41
2022-11-27T04:53:22.145Z,101777.06
2022-11-27T04:55:50.731Z,101785.00
2022-11-27T04:58:17.461Z,101784.03
2022-11-27T05:00:44.292Z,101771.69
2022-11-27T05:03:12.208Z,101772.63
2022-11-27T05:05:38.997Z,101755.72
2022-11-27T05:08:05.843Z,101767.41
2022-11-27T05:10:32.789Z,101769.19
2022-11-27T05:12:59.562Z,101773.59
2022-11-27T05:15:26.366Z,101772.69
2022-11-27T05:17:53.426Z,101772.69
2022-11-27T05:20:20.245Z,101771.81
2022-11-27T05:22:48.257Z,101778.91
2022-11-27T05:25:15.196Z,101785.84
2022-11-27T05:27:41.941Z,101782.37
2022-11-27T05:30:10.141Z,101777.94
2022-11-27T05:32:37.241Z,101784.16
2022-11-27T05:35:04.144Z,101778.91
2022-11-27T05:37:30.962Z,101780.66
2022-11-27T05:39:58.017Z,101778.09
2022-11-27T05:42:24.707Z,101767.44
2022-11-27T05:44:56.671Z,101772.87
2022-11-27T05:47:25.160Z,101782.59
2022-11-27T05:49:52.067Z,101772.91
2022-11-27T05:52:19.058Z,101782.44
2022-11-27T05:54:45.823Z,101776.37
2022-11-27T05:57:12.548Z,101778.09
2022-11-27T05:59:39.296Z,101780.75
2022-11-27T06:02:06.275Z,101779.88
2022-11-27T06:04:34.844Z,101772.00
2022-11-27T06:07:01.693Z,101775.53
2022-11-27T06:09:28.586Z,101779.97
2022-11-27T06:11:55.505Z,101779.09
2022-11-27T06:14:22.288Z,101773.66
2022-11-27T06:16:49.244Z,101779.13
2022-11-27T06:19:16.103Z,101777.34
2022-11-27T06:21:43.257Z,101791.38
2022-11-27T06:24:10.825Z,101794.03
2022-11-27T06:26:37.779Z,101805.47
2022-11-27T06:29:05.017Z,101806.41
2022-11-27T06:31:33.226Z,101798.50
2022-11-27T06:34:00.739Z,101802.09
2022-11-27T06:36:40.759Z,101802.09
2022-11-27T06:39:10.200Z,101805.63
2022-11-27T06:41:37.097Z,101802.13
2022-11-27T06:44:04.307Z,101803.94
2022-11-27T06:46:31.301Z,101795.97
2022-11-27T06:48:58.941Z,101802.13
2022-11-27T06:51:28.050Z,101803.97
2022-11-27T06:53:55.473Z,101813.63
2022-11-27T06:56:25.093Z,101810.09
2022-11-27T06:58:58.744Z,101810.97
2022-11-27T07:01:28.916Z,101813.69
2022-11-27T07:03:56.561Z,101807.47
2022-11-27T07:06:24.989Z,101815.31
2022-11-27T07:08:52.373Z,101816.22
2022-11-27T07:11:22.255Z,101808.34
2022-11-27T07:13:50.475Z,101807.69
2022-11-27T07:16:18.709Z,101810.38
2022-11-27T07:18:48.432Z,101807.75
2022-11-27T07:21:15.527Z,101801.66
2022-11-27T07:23:42.704Z,101805.22
2022-11-27T07:26:24.354Z,101800.88
2022-11-27T07:28:51.820Z,101804.47
2022-11-27T07:31:26.509Z,101802.72
2022-11-27T07:33:54.046Z,101810.59
2022-11-27T07:36:23.303Z,101815.00
2022-11-27T07:38:50.684Z,101812.44
2022-11-27T07:41:18.156Z,101807.13
2022-11-27T07:43:46.309Z,101823.16
2022-11-27T07:46:22.153Z,101824.06
2022-11-27T07:48:49.256Z,101821.59
2022-11-27T07:51:17.984Z,101818.19
2022-11-27T07:53:45.339Z,101822.63
2022-11-27T07:56:14.788Z,101814.00
2022-11-27T07:58:41.640Z,101826.28
2022-11-27T08:01:10.836Z,101819.38
2022-11-27T08:03:38.328Z,101819.47
2022-11-27T08:06:05.509Z,101821.16
2022-11-27T08:08:33.100Z,101814.31
2022-11-27T08:10:59.916Z,101818.69
2022-11-27T08:13:26.740Z,101818.81
2022-11-27T08:15:59.839Z,101818.94
2022-11-27T08:18:26.715Z,101816.34
2022-11-27T08:20:53.524Z,101813.81
2022-11-27T08:23:20.309Z,101816.53
2022-11-27T08:25:47.056Z,101815.75
2022-11-27T08:28:13.802Z,101818.38
2022-11-27T08:30:40.530Z,101821.97
2022-11-27T08:33:07.277Z,101824.59
2022-11-27T08:35:34.014Z,101810.47
2022-11-27T08:38:01.036Z,101825.56
2022-11-27T08:40:27.878Z,101821.03
2022-11-27T08:42:54.654Z,101823.00
2022-11-27T08:45:21.527Z,101839.75
2022-11-27T08:47:48.580Z,101845.97
2022-11-27T08:50:16.234Z,101844.31
2022-11-27T08:52:42.976Z,101840.78
2022-11-27T08:55:09.863Z,101841.72
2022-11-27T08:57:36.606Z,101847.06
2022-11-27T09:00:07.737Z,101847.13
2022-11-27T09:02:35.004Z,101842.63
2022-11-27T09:05:02.811Z,101844.47
2022-11-27T09:07:29.764Z,101854.13
2022-11-27T09:09:58.106Z,101848.88
2022-11-27T09:12:24.988Z,101846.91
2022-11-27T09:14:51.745Z,101855.69
2022-11-27T09:17:18.706Z,101857.47
2022-11-27T09:19:46.462Z,101854.78
2022-11-27T09:22:13.201Z,101857.37
2022-11-27T09:24:40.188Z,101851.09
2022-11-27T09:27:07.125Z,101859.12
2022-11-27T09:29:34.947Z,101855.69
2022-11-27T09:32:01.867Z,101865.19
2022-11-27T09:34:30.468Z,101858.03
2022-11-27T09:36:59.072Z,101859.91
2022-11-27T09:39:30.554Z,101852.09
2022-11-27T09:42:00.283Z,101847.63
2022-11-27T09:44:40.222Z,101846.72
2022-11-27T09:47:32.243Z,101848.56
2022-11-27T09:50:03.385Z,101843.22
2022-11-27T09:52:39.807Z,101845.94
2022-11-27T09:55:12.750Z,101844.19
2022-11-27T09:57:44.562Z,101845.00
2022-11-27T10:00:19.842Z,101841.44
2022-11-27T10:02:48.206Z,101837.09
2022-11-27T10:05:22.976Z,101844.19
2022-11-27T10:07:52.840Z,101837.06
2022-11-27T10:10:41.114Z,101837.94
2022-11-27T10:13:13.820Z,101836.28
2022-11-27T10:16:00.858Z,101840.66
2022-11-27T10:18:37.394Z,101837.06
2022-11-27T10:21:39.287Z,101834.44
2022-11-27T10:24:23.655Z,101838.03
2022-11-27T10:26:54.250Z,101834.63
2022-11-27T10:29:30.079Z,101832.00
2022-11-27T10:32:01.955Z,101830.34
2022-11-27T10:34:40.160Z,101825.19
2022-11-27T10:37:23.767Z,101820.81
2022-11-27T10:39:58.988Z,101803.31
2022-11-27T10:42:44.862Z,101813.88
2022-11-27T10:45:37.030Z,101802.53
2022-11-27T10:48:04.308Z,101819.31
2022-11-27T10:50:31.278Z,101807.72
2022-11-27T10:53:02.732Z,101805.34
2022-11-27T10:55:55.435Z,101798.34
2022-11-27T10:58:31.429Z,101802.00
2022-11-27T11:01:16.412Z,101806.41
2022-11-27T11:03:43.407Z,101793.31
2022-11-27T11:06:22.328Z,101788.94
2022-11-27T11:09:13.333Z,101793.47
2022-11-27T11:11:40.286Z,101786.44
2022-11-27T11:14:22.755Z,101789.09
2022-11-27T11:16:50.806Z,101792.50
2022-11-27T11:19:28.099Z,101791.78
2022-11-27T11:21:55.172Z,101778.63
2022-11-27T11:24:31.005Z,101779.47
2022-11-27T11:27:21.446Z,101771.53
2022-11-27T11:30:01.134Z,101768.16
2022-11-27T11:32:31.259Z,101762.97
2022-11-27T11:35:26.120Z,101765.53
2022-11-27T11:37:53.597Z,101756.03
2022-11-27T11:40:20.356Z,101744.66
2022-11-27T11:42:57.389Z,101755.41
2022-11-27T11:45:28.631Z,101740.50
2022-11-27T11:48:00.821Z,101743.38
2022-11-27T11:50:53.029Z,101734.81
2022-11-27T11:53:37.040Z,101728.03
2022-11-27T11:56:32.976Z,101731.81
2022-11-27T11:59:07.069Z,101729.19
2022-11-27T12:02:22.363Z,101722.09
2022-11-27T12:05:30.733Z,101715.13
2022-11-27T12:08:19.199Z,101719.31
2022-11-27T12:10:54.929Z,101718.97
2022-11-27T12:13:42.609Z,101712.69
2022-11-27T12:16:21.012Z,101709.09
2022-11-27T12:18:54.559Z,101712.56
2022-11-27T12:21:35.379Z,101709.03
2022-11-27T12:24:09.289Z,101708.94
2022-11-27T12:27:04.598Z,101702.88
2022-11-27T12:29:40.709Z,101708.94
2022-11-27T12:32:47.797Z,101704.06
2022-11-27T12:35:20.620Z,101705.06
2022-11-27T12:38:15.289Z,101702.38
2022-11-27T12:41:00.497Z,101699.00
2022-11-27T12:43:33.648Z,101694.41
2022-11-27T12:46:12.429Z,101692.56
2022-11-27T12:48:45.288Z,101698.75
2022-11-27T12:51:23.494Z,101694.31
2022-11-27T12:54:17.728Z,101692.50
2022-11-27T12:56:52.396Z,101694.41
2022-11-27T12:59:38.989Z,101700.63
2022-11-27T13:02:31.070Z,101698.91
2022-11-27T13:05:02.807Z,101693.66
2022-11-27T13:07:47.785Z,101691.81
2022-11-27T13:10:45.655Z,101684.59
2022-11-27T13:13:50.464Z,101687.28
2022-11-27T13:16:27.161Z,101664.22
2022-11-27T13:19:07.043Z,101681.88
2022-11-27T13:21:35.731Z,101681.94
2022-11-27T13:24:03.729Z,101677.47
2022-11-27T13:26:39.717Z,101678.25
2022-11-27T13:29:21.786Z,101680.13
2022-11-27T13:31:54.581Z,101674.84
2022-11-27T13:34:26.780Z,101668.63
2022-11-27T13:37:26.606Z,101670.41
2022-11-27T13:40:01.367Z,101669.34
2022-11-27T13:42:29.301Z,101677.19
2022-11-27T13:45:03.428Z,101682.56
2022-11-27T13:47:39.263Z,101676.44
2022-11-27T13:50:11.961Z,101687.72
2022-11-27T13:53:00.189Z,101682.34
2022-11-27T13:55:30.367Z,101688.66
2022-11-27T13:58:01.376Z,101687.41
2022-11-27T14:00:39.262Z,101680.53
2022-11-27T14:03:10.574Z,101689.22
2022-11-27T14:05:46.098Z,101684.03
2022-11-27T14:08:36.634Z,101678.59
2022-11-27T14:11:13.894Z,101680.47
2022-11-27T14:13:48.041Z,101680.44
2022-11-27T14:16:26.930Z,101685.78
2022-11-27T14:18:57.509Z,101685.66
2022-11-27T14:21:39.326Z,101688.25
2022-11-27T14:24:33.803Z,101693.56
2022-11-27T14:27:00.924Z,101695.28
2022-11-27T14:29:31.369Z,101694.22
2022-11-27T14:32:03.167Z,101700.22
2022-11-27T14:34:34.306Z,101699.38
2022-11-27T14:37:01.884Z,101704.59
2022-11-27T14:39:31.465Z,101700.22
2022-11-27T14:42:07.954Z,101700.06
2022-11-27T14:44:35.131Z,101701.06
2022-11-27T14:47:05.561Z,101698.44
2022-11-27T14:49:33.845Z,101703.69
2022-11-27T14:52:14.886Z,101704.44
2022-11-27T14:54:42.471Z,101697.41
2022-11-27T14:57:17.283Z,101701.78
2022-11-27T14:59:46.955Z,101677.66
2022-11-27T15:02:13.837Z,101701.59
2022-11-27T15:04:45.658Z,101703.38
2022-11-27T15:07:29.557Z,101708.66
2022-11-27T15:10:01.106Z,101685.63
2022-11-27T15:12:45.856Z,101704.31
2022-11-27T15:15:23.776Z,101711.34
2022-11-27T15:17:56.139Z,101704.34
2022-11-27T15:20:49.904Z,101712.25
2022-11-27T15:23:20.053Z,101711.44
2022-11-27T15:26:15.037Z,101711.25
2022-11-27T15:28:53.599Z,101702.41
2022-11-27T15:31:38.713Z,101707.66
2022-11-27T15:34:17.897Z,101705.91
2022-11-27T15:36:48.754Z,101701.44
2022-11-27T15:39:49.562Z,101701.34
2022-11-27T15:42:17.702Z,101704.06
2022-11-27T15:44:45.880Z,101710.88
2022-11-27T15:47:26.997Z,101708.37
2022-11-27T15:49:58.015Z,101711.00
2022-11-27T15:52:25.533Z,101711.78
2022-11-27T15:54:53.273Z,101710.75
2022-11-27T15:57:20.528Z,101703.72
2022-11-27T15:59:49.111Z,101713.53
2022-11-27T16:02:18.315Z,101721.41
2022-11-27T16:04:45.670Z,101716.97
2022-11-27T16:07:12.759Z,101705.66
2022-11-27T16:09:40.586Z,101711.00
2022-11-27T16:12:07.673Z,101706.69
2022-11-27T16:14:34.691Z,101703.09
2022-11-27T16:17:01.772Z,101702.13
2022-11-27T16:19:29.103Z,101696.88
2022-11-27T16:21:57.410Z,101696.88
2022-11-27T16:24:24.648Z,101695.13
2022-11-27T16:26:51.683Z,101695.94
2022-11-27T16:29:18.563Z,101692.38
2022-11-27T16:31:45.747Z,101695.03
2022-11-27T16:34:14.780Z,101688.91
2022-11-27T16:36:44.855Z,101689.62
2022-11-27T16:39:12.765Z,101680.84
2022-11-27T16:41:40.365Z,101682.59
2022-11-27T16:44:12.090Z,101669.44
2022-11-27T16:46:39.559Z,101674.78
2022-11-27T16:49:10.254Z,101671.34
2022-11-27T16:51:39.426Z,101673.81
2022-11-27T16:54:08.595Z,101675.50
2022-11-27T16:56:35.852Z,101679.00
2022-11-27T16:59:03.615Z,101675.47
2022-11-27T17:01:34.643Z,101681.53
2022-11-27T17:04:04.941Z,101669.25
2022-11-27T17:06:33.524Z,101670.13
2022-11-27T17:09:03.485Z,101671.00
2022-11-27T17:11:34.011Z,101668.41
2022-11-27T17:14:04.129Z,101657.84
2022-11-27T17:16:31.232Z,101661.34
2022-11-27T17:18:58.704Z,101660.47
2022-11-27T17:21:32.552Z,101662.16
2022-11-27T17:24:02.433Z,101658.62
2022-11-27T17:26:31.572Z,101652.44
2022-11-27T17:28:59.605Z,101657.69
2022-11-27T17:31:31.163Z,101654.09
2022-11-27T17:33:59.278Z,101655.91
2022-11-27T17:36:28.068Z,101657.66
2022-11-27T17:38:56.030Z,101651.47
2022-11-27T17:41:23.398Z,101654.97
2022-11-27T17:43:50.763Z,101655.03
2022-11-27T17:46:23.925Z,101655.75
2022-11-27T17:48:52.849Z,101643.41
2022-11-27T17:51:23.632Z,101650.59
2022-11-27T17:53:50.847Z,101642.69
2022-11-27T17:56:20.872Z,101638.31
2022-11-27T17:58:48.189Z,101638.41
2022-11-27T18:01:25.089Z,101634.00
2022-11-27T18:03:57.916Z,101625.06
2022-11-27T18:06:25.044Z,101626.84
2022-11-27T18:08:52.835Z,101625.19
2022-11-27T18:11:22.547Z,101617.03
2022-11-27T18:13:50.026Z,101625.75
2022-11-27T18:16:24.038Z,101622.28
2022-11-27T18:18:51.955Z,101624.91
2022-11-27T18:21:21.363Z,101624.13
2022-11-27T18:24:21.226Z,101617.94
2022-11-27T18:27:07.857Z,101609.72
2022-11-27T18:29:24.750Z,101623.03
2022-11-27T18:31:53.206Z,101624.59
2022-11-27T18:34:20.389Z,101615.84
2022-11-27T18:36:47.774Z,101618.59
2022-11-27T18:39:16.031Z,101618.31
2022-11-27T18:41:42.917Z,101615.06
2022-11-27T18:44:10.340Z,101610.63
2022-11-27T18:46:38.061Z,101608.84
2022-11-27T18:49:06.985Z,101607.88
2022-11-27T18:51:34.502Z,101608.75
2022-11-27T18:54:01.927Z,101592.69
2022-11-27T18:56:31.753Z,101600.78
2022-11-27T18:59:03.736Z,101597.28
2022-11-27T19:01:38.146Z,101597.28
2022-11-27T19:04:09.071Z,101596.28
2022-11-27T19:06:37.268Z,101604.13
2022-11-27T19:09:05.014Z,101598.91
2022-11-27T19:11:36.529Z,101595.44
2022-11-27T19:14:06.414Z,101599.03
2022-11-27T19:16:42.402Z,101606.84
2022-11-27T19:19:49.452Z,101608.47
2022-11-27T19:21:57.811Z,101612.16
2022-11-27T19:24:25.145Z,101600.69
2022-11-27T19:26:52.687Z,101607.94
2022-11-27T19:29:19.931Z,101600.97
2022-11-27T19:31:47.222Z,101611.28
2022-11-27T19:34:18.727Z,101610.56
2022-11-27T19:36:46.152Z,101601.91
2022-11-27T19:39:15.231Z,101616.81
2022-11-27T19:41:43.738Z,101622.09
2022-11-27T19:44:13.133Z,101615.94
2022-11-27T19:46:40.811Z,101621.28
2022-11-27T19:49:15.710Z,101615.12
2022-11-27T19:51:42.668Z,101616.81
2022-11-27T19:54:14.258Z,101614.09
2022-11-27T19:56:43.537Z,101608.91
2022-11-27T19:59:14.572Z,101614.19
2022-11-27T20:01:45.597Z,101608.94
2022-11-27T20:04:15.886Z,101611.66
2022-11-27T20:06:42.963Z,101609.03
2022-11-27T20:09:14.269Z,101606.37
2022-11-27T20:11:42.616Z,101605.50
2022-11-27T20:14:09.510Z,101603.69
2022-11-27T20:16:37.084Z,101599.37
2022-11-27T20:19:06.367Z,101598.41
2022-11-27T20:21:34.251Z,101599.37
2022-11-27T20:24:01.715Z,101589.66
2022-11-27T20:26:30.958Z,101582.63
2022-11-27T20:28:59.292Z,101589.66
2022-11-27T20:31:29.804Z,101594.81
2022-11-27T20:34:01.217Z,101593.88
2022-11-27T20:36:33.098Z,101592.78
2022-11-27T20:39:08.592Z,101590.28
2022-11-27T20:41:36.173Z,101578.78
2022-11-27T20:44:05.314Z,101584.84
2022-11-27T20:46:33.550Z,101583.06
2022-11-27T20:49:01.306Z,101580.50
2022-11-27T20:51:31.757Z,101568.19
2022-11-27T20:54:01.649Z,101580.34
2022-11-27T20:56:30.240Z,101567.25
2022-11-27T20:58:57.979Z,101566.44
2022-11-27T21:01:29.910Z,101567.28
2022-11-27T21:03:59.301Z,101565.56
2022-11-27T21:06:29.199Z,101565.56
2022-11-27T21:08:56.822Z,101569.94
2022-11-27T21:11:26.626Z,101571.84
2022-11-27T21:13:59.997Z,101562.25
2022-11-27T21:16:30.064Z,101567.59
2022-11-27T21:19:02.456Z,101567.59
2022-11-27T21:21:30.254Z,101557.78
2022-11-27T21:23:58.388Z,101564.84
2022-11-27T21:26:26.052Z,101563.88
2022-11-27T21:28:53.203Z,101563.00
2022-11-27T21:31:23.955Z,101569.16
2022-11-27T21:33:51.748Z,101563.81
2022-11-27T21:36:20.547Z,101559.34
2022-11-27T21:38:48.048Z,101563.72
2022-11-27T21:41:17.419Z,101563.66
2022-11-27T21:43:45.788Z,101561.00
2022-11-27T21:46:18.966Z,101557.50
2022-11-27T21:48:47.490Z,101551.28
2022-11-27T21:51:15.914Z,101554.06
2022-11-27T21:53:43.957Z,101553.22
2022-11-27T21:56:13.556Z,101554.88
2022-11-27T21:58:40.525Z,101550.50
2022-11-27T22:01:10.767Z,101552.34
2022-11-27T22:03:42.313Z,101541.75
2022-11-27T22:06:15.128Z,101549.78
2022-11-27T22:09:02.566Z,101548.03
2022-11-27T22:11:32.997Z,101548.91
2022-11-27T22:14:05.831Z,101552.50
2022-11-27T22:16:37.654Z,101554.19
2022-11-27T22:19:10.209Z,101544.59
2022-11-27T22:21:37.055Z,101552.41
2022-11-27T22:24:04.744Z,101537.25
2022-11-27T22:26:31.689Z,101544.19
2022-11-27T22:28:59.076Z,101548.56
2022-11-27T22:31:31.123Z,101545.94
2022-11-27T22:33:58.064Z,101535.41
2022-11-27T22:36:26.278Z,101538.94
2022-11-27T22:38:54.767Z,101531.81
2022-11-27T22:41:24.201Z,101533.56
2022-11-27T22:43:51.557Z,101538.72
2022-11-27T22:46:22.199Z,101536.91
2022-11-27T22:48:55.737Z,101532.59
2022-11-27T22:51:23.153Z,101535.16
2022-11-27T22:53:50.357Z,101537.69
2022-11-27T22:56:17.820Z,101531.47
2022-11-27T22:58:45.253Z,101544.81
2022-11-27T23:01:20.644Z,101535.13
2022-11-27T23:03:47.479Z,101525.41
2022-11-27T23:06:16.504Z,101536.81
2022-11-27T23:08:45.346Z,101532.41
2022-11-27T23:11:16.864Z,101526.31
2022-11-27T23:13:49.476Z,101527.28
2022-11-27T23:16:18.171Z,101526.34
2022-11-27T23:18:45.256Z,101514.91
2022-11-27T23:21:17.559Z,101524.66
2022-11-27T23:23:44.953Z,101509.81
2022-11-27T23:26:18.071Z,101512.47
2022-11-27T23:28:46.687Z,101487.69
2022-11-27T23:31:32.885Z,101491.44
2022-11-27T23:34:02.016Z,101483.50
2022-11-27T23:36:30.451Z,101482.59
2022-11-27T23:39:00.122Z,101470.28
2022-11-27T23:41:28.400Z,101465.00
2022-11-27T23:43:55.702Z,101466.59
2022-11-27T23:46:26.447Z,101463.06
2022-11-27T23:48:55.025Z,101461.34
2022-11-27T23:51:25.884Z,101458.59
2022-11-27T23:53:53.676Z,101464.75
2022-11-27T23:56:23.391Z,101458.62
2022-11-27T23:58:50.644Z,101454.28
